sensor_id;sensor_type;location;lat;lon;timestamp;P1;P2;P0
54869;PMS5003;40756;-37.950;145.008;2023-01-08T00:01:06;16;14;
54869;PMS5003;40756;-37.950;145.008;2023-01-08T00:03:37;14;14;
54869;PMS5003;40756;-37.950;145.008;2023-01-08T00:06:09;15;14;
54869;PMS5003;40756;-37.950;145.008;2023-01-08T00:08:40;16;16;
54869;PMS5003;40756;-37.950;145.008;2023-01-08T00:11:11;20;16;
54869;PMS5003;40756;-37.950;145.008;2023-01-08T00:13:41;12;12;
54869;PMS5003;40756;-37.950;145.008;2023-01-08T00:16:11;11;10;
54869;PMS5003;40756;-37.950;145.008;2023-01-08T00:18:42;12;11;
54869;PMS5003;40756;-37.950;145.008;2023-01-08T00:21:12;16;16;
54869;PMS5003;40756;-37.950;145.008;2023-01-08T00:23:42;16;15;
54869;PMS5003;40756;-37.950;145.008;2023-01-08T00:26:11;16;16;
54869;PMS5003;40756;-37.950;145.008;2023-01-08T00:28:41;17;17;
54869;PMS5003;40756;-37.950;145.008;2023-01-08T00:31:11;17;17;
54869;PMS5003;40756;-37.950;145.008;2023-01-08T00:33:43;17;16;
54869;PMS5003;40756;-37.950;145.008;2023-01-08T00:36:13;17;16;
54869;PMS5003;40756;-37.950;145.008;2023-01-08T00:38:44;14;14;
54869;PMS5003;40756;-37.950;145.008;2023-01-08T00:41:14;12;12;
54869;PMS5003;40756;-37.950;145.008;2023-01-08T00:43:44;13;13;
54869;PMS5003;40756;-37.950;145.008;2023-01-08T00:46:13;15;15;
54869;PMS5003;40756;-37.950;145.008;2023-01-08T00:48:42;16;16;
54869;PMS5003;40756;-37.950;145.008;2023-01-08T00:51:12;12;12;
54869;PMS5003;40756;-37.950;145.008;2023-01-08T00:53:41;11;11;
54869;PMS5003;40756;-37.950;145.008;2023-01-08T00:56:10;13;12;
54869;PMS5003;40756;-37.950;145.008;2023-01-08T00:58:40;10;10;
54869;PMS5003;40756;-37.950;145.008;2023-01-08T01:01:10;10;10;
54869;PMS5003;40756;-37.950;145.008;2023-01-08T01:03:40;17;15;
54869;PMS5003;40756;-37.950;145.008;2023-01-08T01:06:11;17;17;
54869;PMS5003;40756;-37.950;145.008;2023-01-08T01:08:42;18;18;
54869;PMS5003;40756;-37.950;145.008;2023-01-08T01:11:15;15;14;
54869;PMS5003;40756;-37.950;145.008;2023-01-08T01:13:46;12;12;
54869;PMS5003;40756;-37.950;145.008;2023-01-08T01:16:16;17;16;
54869;PMS5003;40756;-37.950;145.008;2023-01-08T01:18:46;16;15;
54869;PMS5003;40756;-37.950;145.008;2023-01-08T01:21:17;16;16;
54869;PMS5003;40756;-37.950;145.008;2023-01-08T01:23:52;17;16;
54869;PMS5003;40756;-37.950;145.008;2023-01-08T01:26:23;19;17;
54869;PMS5003;40756;-37.950;145.008;2023-01-08T01:28:55;13;11;
54869;PMS5003;40756;-37.950;145.008;2023-01-08T01:31:25;13;13;
54869;PMS5003;40756;-37.950;145.008;2023-01-08T01:33:57;15;13;
54869;PMS5003;40756;-37.950;145.008;2023-01-08T01:36:27;17;16;
54869;PMS5003;40756;-37.950;145.008;2023-01-08T01:38:56;27;27;
54869;PMS5003;40756;-37.950;145.008;2023-01-08T01:41:27;24;22;
54869;PMS5003;40756;-37.950;145.008;2023-01-08T01:44:00;17;16;
54869;PMS5003;40756;-37.950;145.008;2023-01-08T01:47:05;24;24;
54869;PMS5003;40756;-37.950;145.008;2023-01-08T01:49:45;24;22;
54869;PMS5003;40756;-37.950;145.008;2023-01-08T01:52:19;18;16;
54869;PMS5003;40756;-37.950;145.008;2023-01-08T01:54:50;38;38;
54869;PMS5003;40756;-37.950;145.008;2023-01-08T01:57:21;19;18;
54869;PMS5003;40756;-37.950;145.008;2023-01-08T01:59:51;27;26;
54869;PMS5003;40756;-37.950;145.008;2023-01-08T02:02:21;14;13;
54869;PMS5003;40756;-37.950;145.008;2023-01-08T02:04:51;9;8;
54869;PMS5003;40756;-37.950;145.008;2023-01-08T02:07:21;9;9;
54869;PMS5003;40756;-37.950;145.008;2023-01-08T02:10:02;16;15;
54869;PMS5003;40756;-37.950;145.008;2023-01-08T02:12:37;16;16;
54869;PMS5003;40756;-37.950;145.008;2023-01-08T02:15:15;18;17;
54869;PMS5003;40756;-37.950;145.008;2023-01-08T02:17:49;12;12;
54869;PMS5003;40756;-37.950;145.008;2023-01-08T02:20:26;15;15;
54869;PMS5003;40756;-37.950;145.008;2023-01-08T02:23:05;12;12;
54869;PMS5003;40756;-37.950;145.008;2023-01-08T02:26:15;23;23;
54869;PMS5003;40756;-37.950;145.008;2023-01-08T02:28:51;12;12;
54869;PMS5003;40756;-37.950;145.008;2023-01-08T02:31:26;34;34;
54869;PMS5003;40756;-37.950;145.008;2023-01-08T02:33:59;6;6;
54869;PMS5003;40756;-37.950;145.008;2023-01-08T02:36:30;5;5;
54869;PMS5003;40756;-37.950;145.008;2023-01-08T02:39:09;2;2;
54869;PMS5003;40756;-37.950;145.008;2023-01-08T02:41:53;4;4;
54869;PMS5003;40756;-37.950;145.008;2023-01-08T02:44:39;5;5;
54869;PMS5003;40756;-37.950;145.008;2023-01-08T02:47:18;5;5;
54869;PMS5003;40756;-37.950;145.008;2023-01-08T02:49:53;2;2;
54869;PMS5003;40756;-37.950;145.008;2023-01-08T02:52:33;4;4;
54869;PMS5003;40756;-37.950;145.008;2023-01-08T02:55:09;5;5;
54869;PMS5003;40756;-37.950;145.008;2023-01-08T02:57:40;3;3;
54869;PMS5003;40756;-37.950;145.008;2023-01-08T03:00:10;3;3;
54869;PMS5003;40756;-37.950;145.008;2023-01-08T03:02:40;4;4;
54869;PMS5003;40756;-37.950;145.008;2023-01-08T03:05:13;4;4;
54869;PMS5003;40756;-37.950;145.008;2023-01-08T03:07:49;4;4;
54869;PMS5003;40756;-37.950;145.008;2023-01-08T03:10:20;3;3;
54869;PMS5003;40756;-37.950;145.008;2023-01-08T03:12:53;3;3;
54869;PMS5003;40756;-37.950;145.008;2023-01-08T03:15:25;1;1;
54869;PMS5003;40756;-37.950;145.008;2023-01-08T03:18:02;1;1;
54869;PMS5003;40756;-37.950;145.008;2023-01-08T03:20:36;2;2;
54869;PMS5003;40756;-37.950;145.008;2023-01-08T03:23:08;3;2;
54869;PMS5003;40756;-37.950;145.008;2023-01-08T03:25:40;4;4;
54869;PMS5003;40756;-37.950;145.008;2023-01-08T03:28:14;3;3;
54869;PMS5003;40756;-37.950;145.008;2023-01-08T03:30:48;4;4;
54869;PMS5003;40756;-37.950;145.008;2023-01-08T03:33:19;1;1;
54869;PMS5003;40756;-37.950;145.008;2023-01-08T03:35:52;2;2;
54869;PMS5003;40756;-37.950;145.008;2023-01-08T03:38:24;2;2;
54869;PMS5003;40756;-37.950;145.008;2023-01-08T03:40:58;3;2;
54869;PMS5003;40756;-37.950;145.008;2023-01-08T03:43:31;2;2;
54869;PMS5003;40756;-37.950;145.008;2023-01-08T03:46:02;4;3;
54869;PMS5003;40756;-37.950;145.008;2023-01-08T03:48:34;3;3;
54869;PMS5003;40756;-37.950;145.008;2023-01-08T03:51:07;2;2;
54869;PMS5003;40756;-37.950;145.008;2023-01-08T03:53:37;2;2;
54869;PMS5003;40756;-37.950;145.008;2023-01-08T03:56:07;1;1;
54869;PMS5003;40756;-37.950;145.008;2023-01-08T03:58:37;3;2;
54869;PMS5003;40756;-37.950;145.008;2023-01-08T04:01:06;2;2;
54869;PMS5003;40756;-37.950;145.008;2023-01-08T04:03:36;2;2;
54869;PMS5003;40756;-37.950;145.008;2023-01-08T04:06:05;2;2;
54869;PMS5003;40756;-37.950;145.008;2023-01-08T04:08:35;2;2;
54869;PMS5003;40756;-37.950;145.008;2023-01-08T04:11:04;0;0;
54869;PMS5003;40756;-37.950;145.008;2023-01-08T04:13:33;2;1;
54869;PMS5003;40756;-37.950;145.008;2023-01-08T04:16:03;1;1;
54869;PMS5003;40756;-37.950;145.008;2023-01-08T04:18:33;2;2;
54869;PMS5003;40756;-37.950;145.008;2023-01-08T04:21:02;0;0;
54869;PMS5003;40756;-37.950;145.008;2023-01-08T04:23:32;1;1;
54869;PMS5003;40756;-37.950;145.008;2023-01-08T04:26:03;1;1;
54869;PMS5003;40756;-37.950;145.008;2023-01-08T04:28:34;1;1;
54869;PMS5003;40756;-37.950;145.008;2023-01-08T04:31:04;1;1;
54869;PMS5003;40756;-37.950;145.008;2023-01-08T04:33:35;2;1;
54869;PMS5003;40756;-37.950;145.008;2023-01-08T04:36:06;1;1;
54869;PMS5003;40756;-37.950;145.008;2023-01-08T04:38:36;1;1;
54869;PMS5003;40756;-37.950;145.008;2023-01-08T04:41:05;1;1;
54869;PMS5003;40756;-37.950;145.008;2023-01-08T04:43:35;2;1;
54869;PMS5003;40756;-37.950;145.008;2023-01-08T04:46:05;1;1;
54869;PMS5003;40756;-37.950;145.008;2023-01-08T04:48:34;1;1;
54869;PMS5003;40756;-37.950;145.008;2023-01-08T04:51:04;1;1;
54869;PMS5003;40756;-37.950;145.008;2023-01-08T04:53:34;0;0;
54869;PMS5003;40756;-37.950;145.008;2023-01-08T04:56:04;0;0;
54869;PMS5003;40756;-37.950;145.008;2023-01-08T04:58:36;2;2;
54869;PMS5003;40756;-37.950;145.008;2023-01-08T05:01:09;2;2;
54869;PMS5003;40756;-37.950;145.008;2023-01-08T05:03:40;1;1;
54869;PMS5003;40756;-37.950;145.008;2023-01-08T05:06:09;2;2;
54869;PMS5003;40756;-37.950;145.008;2023-01-08T05:08:39;2;2;
54869;PMS5003;40756;-37.950;145.008;2023-01-08T05:11:09;2;2;
54869;PMS5003;40756;-37.950;145.008;2023-01-08T05:13:38;2;2;
54869;PMS5003;40756;-37.950;145.008;2023-01-08T05:16:07;2;2;
54869;PMS5003;40756;-37.950;145.008;2023-01-08T05:18:36;1;1;
54869;PMS5003;40756;-37.950;145.008;2023-01-08T05:21:05;1;1;
54869;PMS5003;40756;-37.950;145.008;2023-01-08T05:23:34;3;2;
54869;PMS5003;40756;-37.950;145.008;2023-01-08T05:26:05;1;1;
54869;PMS5003;40756;-37.950;145.008;2023-01-08T05:28:34;2;2;
54869;PMS5003;40756;-37.950;145.008;2023-01-08T05:31:04;3;3;
54869;PMS5003;40756;-37.950;145.008;2023-01-08T05:33:33;2;2;
54869;PMS5003;40756;-37.950;145.008;2023-01-08T05:36:03;1;0;
54869;PMS5003;40756;-37.950;145.008;2023-01-08T05:38:35;1;1;
54869;PMS5003;40756;-37.950;145.008;2023-01-08T05:41:05;2;2;
54869;PMS5003;40756;-37.950;145.008;2023-01-08T05:43:35;3;3;
54869;PMS5003;40756;-37.950;145.008;2023-01-08T05:46:05;3;3;
54869;PMS5003;40756;-37.950;145.008;2023-01-08T05:48:34;3;3;
54869;PMS5003;40756;-37.950;145.008;2023-01-08T05:51:03;4;4;
54869;PMS5003;40756;-37.950;145.008;2023-01-08T05:53:33;3;3;
54869;PMS5003;40756;-37.950;145.008;2023-01-08T05:56:03;5;4;
54869;PMS5003;40756;-37.950;145.008;2023-01-08T05:58:35;3;3;
54869;PMS5003;40756;-37.950;145.008;2023-01-08T06:01:06;2;2;
54869;PMS5003;40756;-37.950;145.008;2023-01-08T06:03:37;3;3;
54869;PMS5003;40756;-37.950;145.008;2023-01-08T06:06:08;3;3;
54869;PMS5003;40756;-37.950;145.008;2023-01-08T06:08:38;5;4;
54869;PMS5003;40756;-37.950;145.008;2023-01-08T06:11:07;2;2;
54869;PMS5003;40756;-37.950;145.008;2023-01-08T06:13:40;4;3;
54869;PMS5003;40756;-37.950;145.008;2023-01-08T06:16:10;2;2;
54869;PMS5003;40756;-37.950;145.008;2023-01-08T06:18:40;3;2;
54869;PMS5003;40756;-37.950;145.008;2023-01-08T06:21:10;1;1;
54869;PMS5003;40756;-37.950;145.008;2023-01-08T06:23:39;5;3;
54869;PMS5003;40756;-37.950;145.008;2023-01-08T06:26:09;2;1;
54869;PMS5003;40756;-37.950;145.008;2023-01-08T06:28:38;3;3;
54869;PMS5003;40756;-37.950;145.008;2023-01-08T06:31:08;3;2;
54869;PMS5003;40756;-37.950;145.008;2023-01-08T06:33:37;2;2;
54869;PMS5003;40756;-37.950;145.008;2023-01-08T06:36:07;1;1;
54869;PMS5003;40756;-37.950;145.008;2023-01-08T06:38:38;2;2;
54869;PMS5003;40756;-37.950;145.008;2023-01-08T06:41:08;2;2;
54869;PMS5003;40756;-37.950;145.008;2023-01-08T06:43:37;2;2;
54869;PMS5003;40756;-37.950;145.008;2023-01-08T06:46:08;2;2;
54869;PMS5003;40756;-37.950;145.008;2023-01-08T06:48:37;1;1;
54869;PMS5003;40756;-37.950;145.008;2023-01-08T06:51:07;2;2;
54869;PMS5003;40756;-37.950;145.008;2023-01-08T06:53:36;2;2;
54869;PMS5003;40756;-37.950;145.008;2023-01-08T06:56:05;3;3;
54869;PMS5003;40756;-37.950;145.008;2023-01-08T06:58:35;1;1;
54869;PMS5003;40756;-37.950;145.008;2023-01-08T07:01:05;2;2;
54869;PMS5003;40756;-37.950;145.008;2023-01-08T07:03:39;2;2;
54869;PMS5003;40756;-37.950;145.008;2023-01-08T07:06:10;2;2;
54869;PMS5003;40756;-37.950;145.008;2023-01-08T07:08:42;2;2;
54869;PMS5003;40756;-37.950;145.008;2023-01-08T07:11:12;1;1;
54869;PMS5003;40756;-37.950;145.008;2023-01-08T07:13:42;3;2;
54869;PMS5003;40756;-37.950;145.008;2023-01-08T07:16:12;2;2;
54869;PMS5003;40756;-37.950;145.008;2023-01-08T07:18:42;1;1;
54869;PMS5003;40756;-37.950;145.008;2023-01-08T07:21:12;2;2;
54869;PMS5003;40756;-37.950;145.008;2023-01-08T07:23:41;3;3;
54869;PMS5003;40756;-37.950;145.008;2023-01-08T07:26:10;2;2;
54869;PMS5003;40756;-37.950;145.008;2023-01-08T07:28:39;1;1;
54869;PMS5003;40756;-37.950;145.008;2023-01-08T07:31:10;3;3;
54869;PMS5003;40756;-37.950;145.008;2023-01-08T07:33:39;3;3;
54869;PMS5003;40756;-37.950;145.008;2023-01-08T07:36:09;2;2;
54869;PMS5003;40756;-37.950;145.008;2023-01-08T07:38:39;3;3;
54869;PMS5003;40756;-37.950;145.008;2023-01-08T07:41:09;3;3;
54869;PMS5003;40756;-37.950;145.008;2023-01-08T07:43:39;4;4;
54869;PMS5003;40756;-37.950;145.008;2023-01-08T07:46:08;2;2;
54869;PMS5003;40756;-37.950;145.008;2023-01-08T07:48:37;2;2;
54869;PMS5003;40756;-37.950;145.008;2023-01-08T07:51:07;2;2;
54869;PMS5003;40756;-37.950;145.008;2023-01-08T07:53:37;3;3;
54869;PMS5003;40756;-37.950;145.008;2023-01-08T07:56:07;6;6;
54869;PMS5003;40756;-37.950;145.008;2023-01-08T07:58:38;3;3;
54869;PMS5003;40756;-37.950;145.008;2023-01-08T08:01:08;5;4;
54869;PMS5003;40756;-37.950;145.008;2023-01-08T08:03:38;3;3;
54869;PMS5003;40756;-37.950;145.008;2023-01-08T08:06:08;2;2;
54869;PMS5003;40756;-37.950;145.008;2023-01-08T08:08:38;1;1;
54869;PMS5003;40756;-37.950;145.008;2023-01-08T08:11:07;1;1;
54869;PMS5003;40756;-37.950;145.008;2023-01-08T08:13:37;2;2;
54869;PMS5003;40756;-37.950;145.008;2023-01-08T08:16:07;2;2;
54869;PMS5003;40756;-37.950;145.008;2023-01-08T08:18:37;1;1;
54869;PMS5003;40756;-37.950;145.008;2023-01-08T08:21:07;2;2;
54869;PMS5003;40756;-37.950;145.008;2023-01-08T08:23:36;1;1;
54869;PMS5003;40756;-37.950;145.008;2023-01-08T08:26:05;1;1;
54869;PMS5003;40756;-37.950;145.008;2023-01-08T08:28:34;1;1;
54869;PMS5003;40756;-37.950;145.008;2023-01-08T08:31:04;1;1;
54869;PMS5003;40756;-37.950;145.008;2023-01-08T08:33:34;1;1;
54869;PMS5003;40756;-37.950;145.008;2023-01-08T08:36:03;1;1;
54869;PMS5003;40756;-37.950;145.008;2023-01-08T08:38:35;1;1;
54869;PMS5003;40756;-37.950;145.008;2023-01-08T08:41:06;1;1;
54869;PMS5003;40756;-37.950;145.008;2023-01-08T08:43:35;1;1;
54869;PMS5003;40756;-37.950;145.008;2023-01-08T08:46:04;3;3;
54869;PMS5003;40756;-37.950;145.008;2023-01-08T08:48:34;4;4;
54869;PMS5003;40756;-37.950;145.008;2023-01-08T08:51:03;2;2;
54869;PMS5003;40756;-37.950;145.008;2023-01-08T08:53:32;4;4;
54869;PMS5003;40756;-37.950;145.008;2023-01-08T08:56:02;2;2;
54869;PMS5003;40756;-37.950;145.008;2023-01-08T08:58:32;2;2;
54869;PMS5003;40756;-37.950;145.008;2023-01-08T09:01:01;2;1;
54869;PMS5003;40756;-37.950;145.008;2023-01-08T09:03:31;12;12;
54869;PMS5003;40756;-37.950;145.008;2023-01-08T09:06:01;28;28;
54869;PMS5003;40756;-37.950;145.008;2023-01-08T09:08:30;54;54;
54869;PMS5003;40756;-37.950;145.008;2023-01-08T09:11:01;35;34;
54869;PMS5003;40756;-37.950;145.008;2023-01-08T09:13:30;58;58;
54869;PMS5003;40756;-37.950;145.008;2023-01-08T09:16:00;10;10;
54869;PMS5003;40756;-37.950;145.008;2023-01-08T09:18:29;34;34;
54869;PMS5003;40756;-37.950;145.008;2023-01-08T09:21:03;17;16;
54869;PMS5003;40756;-37.950;145.008;2023-01-08T09:23:33;1;1;
54869;PMS5003;40756;-37.950;145.008;2023-01-08T09:26:03;0;0;
54869;PMS5003;40756;-37.950;145.008;2023-01-08T09:28:33;1;1;
54869;PMS5003;40756;-37.950;145.008;2023-01-08T09:31:02;1;1;
54869;PMS5003;40756;-37.950;145.008;2023-01-08T09:33:32;1;1;
54869;PMS5003;40756;-37.950;145.008;2023-01-08T09:36:01;1;1;
54869;PMS5003;40756;-37.950;145.008;2023-01-08T09:38:32;2;2;
54869;PMS5003;40756;-37.950;145.008;2023-01-08T09:41:04;1;1;
54869;PMS5003;40756;-37.950;145.008;2023-01-08T09:43:40;1;1;
54869;PMS5003;40756;-37.950;145.008;2023-01-08T09:46:12;2;2;
54869;PMS5003;40756;-37.950;145.008;2023-01-08T09:48:44;3;3;
54869;PMS5003;40756;-37.950;145.008;2023-01-08T09:51:15;3;3;
54869;PMS5003;40756;-37.950;145.008;2023-01-08T09:53:48;9;8;
54869;PMS5003;40756;-37.950;145.008;2023-01-08T09:56:21;11;11;
54869;PMS5003;40756;-37.950;145.008;2023-01-08T09:58:51;20;20;
54869;PMS5003;40756;-37.950;145.008;2023-01-08T10:01:26;6;5;
54869;PMS5003;40756;-37.950;145.008;2023-01-08T10:03:58;5;5;
54869;PMS5003;40756;-37.950;145.008;2023-01-08T10:06:33;1;1;
54869;PMS5003;40756;-37.950;145.008;2023-01-08T10:09:03;2;2;
54869;PMS5003;40756;-37.950;145.008;2023-01-08T10:11:34;3;3;
54869;PMS5003;40756;-37.950;145.008;2023-01-08T10:14:09;2;2;
54869;PMS5003;40756;-37.950;145.008;2023-01-08T10:16:46;5;3;
54869;PMS5003;40756;-37.950;145.008;2023-01-08T10:19:23;2;2;
54869;PMS5003;40756;-37.950;145.008;2023-01-08T10:21:53;2;2;
54869;PMS5003;40756;-37.950;145.008;2023-01-08T10:24:33;1;1;
54869;PMS5003;40756;-37.950;145.008;2023-01-08T10:27:06;1;1;
54869;PMS5003;40756;-37.950;145.008;2023-01-08T10:29:39;1;1;
54869;PMS5003;40756;-37.950;145.008;2023-01-08T10:32:11;2;2;
54869;PMS5003;40756;-37.950;145.008;2023-01-08T10:34:44;3;3;
54869;PMS5003;40756;-37.950;145.008;2023-01-08T10:37:21;2;2;
54869;PMS5003;40756;-37.950;145.008;2023-01-08T10:39:54;2;2;
54869;PMS5003;40756;-37.950;145.008;2023-01-08T10:42:31;1;1;
54869;PMS5003;40756;-37.950;145.008;2023-01-08T10:45:03;1;1;
54869;PMS5003;40756;-37.950;145.008;2023-01-08T10:47:48;1;1;
54869;PMS5003;40756;-37.950;145.008;2023-01-08T10:50:22;2;2;
54869;PMS5003;40756;-37.950;145.008;2023-01-08T10:52:53;2;2;
54869;PMS5003;40756;-37.950;145.008;2023-01-08T10:55:25;2;2;
54869;PMS5003;40756;-37.950;145.008;2023-01-08T10:57:57;1;1;
54869;PMS5003;40756;-37.950;145.008;2023-01-08T11:00:29;0;0;
54869;PMS5003;40756;-37.950;145.008;2023-01-08T11:03:00;3;3;
54869;PMS5003;40756;-37.950;145.008;2023-01-08T11:05:32;3;3;
54869;PMS5003;40756;-37.950;145.008;2023-01-08T11:08:05;1;1;
54869;PMS5003;40756;-37.950;145.008;2023-01-08T11:10:41;3;3;
54869;PMS5003;40756;-37.950;145.008;2023-01-08T11:13:19;3;3;
54869;PMS5003;40756;-37.950;145.008;2023-01-08T11:15:57;2;2;
54869;PMS5003;40756;-37.950;145.008;2023-01-08T11:18:44;1;1;
54869;PMS5003;40756;-37.950;145.008;2023-01-08T11:21:18;3;3;
54869;PMS5003;40756;-37.950;145.008;2023-01-08T11:24:00;1;1;
54869;PMS5003;40756;-37.950;145.008;2023-01-08T11:26:43;4;2;
54869;PMS5003;40756;-37.950;145.008;2023-01-08T11:29:19;1;1;
54869;PMS5003;40756;-37.950;145.008;2023-01-08T11:31:58;3;3;
54869;PMS5003;40756;-37.950;145.008;2023-01-08T11:34:45;2;2;
54869;PMS5003;40756;-37.950;145.008;2023-01-08T11:37:24;6;5;
54869;PMS5003;40756;-37.950;145.008;2023-01-08T11:39:57;8;8;
54869;PMS5003;40756;-37.950;145.008;2023-01-08T11:42:29;6;6;
54869;PMS5003;40756;-37.950;145.008;2023-01-08T11:45:16;27;27;
54869;PMS5003;40756;-37.950;145.008;2023-01-08T11:47:58;44;44;
54869;PMS5003;40756;-37.950;145.008;2023-01-08T11:50:49;2;2;
54869;PMS5003;40756;-37.950;145.008;2023-01-08T11:53:33;1;1;
54869;PMS5003;40756;-37.950;145.008;2023-01-08T11:56:13;4;4;
54869;PMS5003;40756;-37.950;145.008;2023-01-08T11:58:57;7;7;
54869;PMS5003;40756;-37.950;145.008;2023-01-08T12:01:38;5;5;
54869;PMS5003;40756;-37.950;145.008;2023-01-08T12:04:25;7;7;
54869;PMS5003;40756;-37.950;145.008;2023-01-08T12:07:11;9;9;
54869;PMS5003;40756;-37.950;145.008;2023-01-08T12:09:48;17;17;
54869;PMS5003;40756;-37.950;145.008;2023-01-08T12:12:26;10;10;
54869;PMS5003;40756;-37.950;145.008;2023-01-08T12:15:11;26;26;
54869;PMS5003;40756;-37.950;145.008;2023-01-08T12:17:52;22;22;
54869;PMS5003;40756;-37.950;145.008;2023-01-08T12:21:43;12;12;
54869;PMS5003;40756;-37.950;145.008;2023-01-08T12:24:28;3;2;
54869;PMS5003;40756;-37.950;145.008;2023-01-08T12:27:51;4;3;
54869;PMS5003;40756;-37.950;145.008;2023-01-08T12:30:31;3;3;
54869;PMS5003;40756;-37.950;145.008;2023-01-08T12:33:14;7;5;
54869;PMS5003;40756;-37.950;145.008;2023-01-08T12:35:57;6;6;
54869;PMS5003;40756;-37.950;145.008;2023-01-08T12:38:32;5;4;
54869;PMS5003;40756;-37.950;145.008;2023-01-08T12:41:07;5;5;
54869;PMS5003;40756;-37.950;145.008;2023-01-08T12:43:44;5;5;
54869;PMS5003;40756;-37.950;145.008;2023-01-08T12:46:19;4;4;
54869;PMS5003;40756;-37.950;145.008;2023-01-08T12:48:52;3;3;
54869;PMS5003;40756;-37.950;145.008;2023-01-08T12:51:25;3;3;
54869;PMS5003;40756;-37.950;145.008;2023-01-08T12:54:01;4;4;
54869;PMS5003;40756;-37.950;145.008;2023-01-08T12:56:44;3;3;
54869;PMS5003;40756;-37.950;145.008;2023-01-08T12:59:22;2;2;
54869;PMS5003;40756;-37.950;145.008;2023-01-08T13:02:05;0;0;
54869;PMS5003;40756;-37.950;145.008;2023-01-08T13:04:46;2;2;
54869;PMS5003;40756;-37.950;145.008;2023-01-08T13:07:17;3;3;
54869;PMS5003;40756;-37.950;145.008;2023-01-08T13:09:58;3;3;
54869;PMS5003;40756;-37.950;145.008;2023-01-08T13:12:33;3;3;
54869;PMS5003;40756;-37.950;145.008;2023-01-08T13:15:05;2;2;
54869;PMS5003;40756;-37.950;145.008;2023-01-08T13:17:46;3;3;
54869;PMS5003;40756;-37.950;145.008;2023-01-08T13:20:20;5;5;
54869;PMS5003;40756;-37.950;145.008;2023-01-08T13:22:52;3;3;
54869;PMS5003;40756;-37.950;145.008;2023-01-08T13:25:30;3;3;
54869;PMS5003;40756;-37.950;145.008;2023-01-08T13:28:04;2;2;
54869;PMS5003;40756;-37.950;145.008;2023-01-08T13:30:53;3;3;
54869;PMS5003;40756;-37.950;145.008;2023-01-08T13:33:36;3;3;
54869;PMS5003;40756;-37.950;145.008;2023-01-08T13:36:13;3;3;
54869;PMS5003;40756;-37.950;145.008;2023-01-08T13:38:57;1;1;
54869;PMS5003;40756;-37.950;145.008;2023-01-08T13:41:30;2;2;
54869;PMS5003;40756;-37.950;145.008;2023-01-08T13:44:02;3;3;
54869;PMS5003;40756;-37.950;145.008;2023-01-08T13:46:33;2;2;
54869;PMS5003;40756;-37.950;145.008;2023-01-08T13:49:05;4;3;
54869;PMS5003;40756;-37.950;145.008;2023-01-08T13:51:39;3;3;
54869;PMS5003;40756;-37.950;145.008;2023-01-08T13:54:16;4;3;
54869;PMS5003;40756;-37.950;145.008;2023-01-08T13:56:52;4;3;
54869;PMS5003;40756;-37.950;145.008;2023-01-08T13:59:32;3;3;
54869;PMS5003;40756;-37.950;145.008;2023-01-08T14:03:20;4;4;
54869;PMS5003;40756;-37.950;145.008;2023-01-08T14:05:51;5;5;
54869;PMS5003;40756;-37.950;145.008;2023-01-08T14:08:32;4;3;
54869;PMS5003;40756;-37.950;145.008;2023-01-08T14:11:02;6;6;
54869;PMS5003;40756;-37.950;145.008;2023-01-08T14:13:31;5;5;
54869;PMS5003;40756;-37.950;145.008;2023-01-08T14:16:02;4;4;
54869;PMS5003;40756;-37.950;145.008;2023-01-08T14:18:32;4;4;
54869;PMS5003;40756;-37.950;145.008;2023-01-08T14:21:02;5;4;
54869;PMS5003;40756;-37.950;145.008;2023-01-08T14:23:32;4;4;
54869;PMS5003;40756;-37.950;145.008;2023-01-08T14:26:06;5;4;
54869;PMS5003;40756;-37.950;145.008;2023-01-08T14:28:50;3;2;
54869;PMS5003;40756;-37.950;145.008;2023-01-08T14:31:20;3;3;
54869;PMS5003;40756;-37.950;145.008;2023-01-08T14:33:51;4;4;
54869;PMS5003;40756;-37.950;145.008;2023-01-08T14:36:22;4;4;
54869;PMS5003;40756;-37.950;145.008;2023-01-08T14:38:53;6;5;
54869;PMS5003;40756;-37.950;145.008;2023-01-08T14:41:23;4;4;
54869;PMS5003;40756;-37.950;145.008;2023-01-08T14:44:03;7;6;
54869;PMS5003;40756;-37.950;145.008;2023-01-08T14:46:32;5;5;
54869;PMS5003;40756;-37.950;145.008;2023-01-08T14:49:01;5;5;
54869;PMS5003;40756;-37.950;145.008;2023-01-08T14:51:31;6;6;
54869;PMS5003;40756;-37.950;145.008;2023-01-08T14:54:01;5;5;
54869;PMS5003;40756;-37.950;145.008;2023-01-08T14:56:33;4;4;
54869;PMS5003;40756;-37.950;145.008;2023-01-08T14:59:06;5;4;
54869;PMS5003;40756;-37.950;145.008;2023-01-08T15:01:38;4;4;
54869;PMS5003;40756;-37.950;145.008;2023-01-08T15:04:13;3;3;
54869;PMS5003;40756;-37.950;145.008;2023-01-08T15:06:45;3;3;
54869;PMS5003;40756;-37.950;145.008;2023-01-08T15:09:21;3;3;
54869;PMS5003;40756;-37.950;145.008;2023-01-08T15:11:55;4;4;
54869;PMS5003;40756;-37.950;145.008;2023-01-08T15:14:28;4;4;
54869;PMS5003;40756;-37.950;145.008;2023-01-08T15:16:59;5;4;
54869;PMS5003;40756;-37.950;145.008;2023-01-08T15:19:38;4;4;
54869;PMS5003;40756;-37.950;145.008;2023-01-08T15:22:14;4;4;
54869;PMS5003;40756;-37.950;145.008;2023-01-08T15:24:51;6;5;
54869;PMS5003;40756;-37.950;145.008;2023-01-08T15:27:25;4;4;
54869;PMS5003;40756;-37.950;145.008;2023-01-08T15:29:55;5;4;
54869;PMS5003;40756;-37.950;145.008;2023-01-08T15:32:27;4;4;
54869;PMS5003;40756;-37.950;145.008;2023-01-08T15:34:59;3;3;
54869;PMS5003;40756;-37.950;145.008;2023-01-08T15:37:40;4;2;
54869;PMS5003;40756;-37.950;145.008;2023-01-08T15:40:10;4;4;
54869;PMS5003;40756;-37.950;145.008;2023-01-08T15:42:42;5;4;
54869;PMS5003;40756;-37.950;145.008;2023-01-08T15:45:13;3;3;
54869;PMS5003;40756;-37.950;145.008;2023-01-08T15:47:44;3;3;
54869;PMS5003;40756;-37.950;145.008;2023-01-08T15:50:13;5;5;
54869;PMS5003;40756;-37.950;145.008;2023-01-08T15:52:43;5;5;
54869;PMS5003;40756;-37.950;145.008;2023-01-08T15:55:14;4;4;
54869;PMS5003;40756;-37.950;145.008;2023-01-08T15:57:45;3;3;
54869;PMS5003;40756;-37.950;145.008;2023-01-08T16:03:09;4;4;
54869;PMS5003;40756;-37.950;145.008;2023-01-08T16:05:40;3;3;
54869;PMS5003;40756;-37.950;145.008;2023-01-08T16:08:10;5;4;
54869;PMS5003;40756;-37.950;145.008;2023-01-08T16:10:39;5;5;
54869;PMS5003;40756;-37.950;145.008;2023-01-08T16:13:08;5;5;
54869;PMS5003;40756;-37.950;145.008;2023-01-08T16:15:39;4;4;
54869;PMS5003;40756;-37.950;145.008;2023-01-08T16:18:09;4;4;
54869;PMS5003;40756;-37.950;145.008;2023-01-08T16:20:38;3;3;
54869;PMS5003;40756;-37.950;145.008;2023-01-08T16:23:07;4;4;
54869;PMS5003;40756;-37.950;145.008;2023-01-08T16:25:37;5;4;
54869;PMS5003;40756;-37.950;145.008;2023-01-08T16:28:07;4;4;
54869;PMS5003;40756;-37.950;145.008;2023-01-08T16:30:38;6;4;
54869;PMS5003;40756;-37.950;145.008;2023-01-08T16:33:07;3;3;
54869;PMS5003;40756;-37.950;145.008;2023-01-08T16:35:37;3;3;
54869;PMS5003;40756;-37.950;145.008;2023-01-08T16:38:07;3;3;